createdAt,value
2023-01-26T00:00:30.921Z,92.00
2023-01-26T00:02:33.964Z,91.18
2023-01-26T00:04:38.357Z,96.63
2023-01-26T00:06:41.381Z,91.88
2023-01-26T00:08:46.255Z,89.32
2023-01-26T00:10:51.229Z,88.15
2023-01-26T00:12:54.239Z,89.60
2023-01-26T00:14:57.235Z,89.20
2023-01-26T00:17:00.266Z,87.22
2023-01-26T00:19:03.714Z,84.70
2023-01-26T00:21:09.772Z,90.32
2023-01-26T00:23:12.765Z,90.63
2023-01-26T00:25:15.915Z,88.63
2023-01-26T00:27:19.052Z,86.50
2023-01-26T00:29:22.207Z,87.15
2023-01-26T00:31:27.424Z,89.30
2023-01-26T00:33:30.577Z,88.55
2023-01-26T00:35:33.552Z,85.78
2023-01-26T00:37:39.451Z,89.38
2023-01-26T00:39:42.505Z,90.47
2023-01-26T00:42:03.199Z,93.63
2023-01-26T00:44:06.304Z,89.55
2023-01-26T00:46:09.755Z,79.43
2023-01-26T00:48:12.928Z,89.90
2023-01-26T00:50:17.395Z,82.25
2023-01-26T00:52:20.724Z,90.47
2023-01-26T00:54:25.300Z,84.72
2023-01-26T00:56:28.846Z,89.80
2023-01-26T00:58:31.980Z,88.43
2023-01-26T01:00:36.566Z,88.68
2023-01-26T01:02:40.837Z,86.50
2023-01-26T01:04:44.098Z,88.55
2023-01-26T01:06:47.381Z,84.07
2023-01-26T01:08:50.682Z,86.78
2023-01-26T01:11:04.133Z,87.38
2023-01-26T01:13:07.355Z,88.03
2023-01-26T01:15:10.813Z,82.03
2023-01-26T01:17:15.604Z,87.47
2023-01-26T01:19:19.982Z,84.57
2023-01-26T01:21:24.693Z,83.63
2023-01-26T01:23:29.979Z,88.03
2023-01-26T01:25:34.801Z,85.93
2023-01-26T01:27:39.706Z,84.50
2023-01-26T01:29:43.155Z,84.47
2023-01-26T01:31:46.475Z,80.28
2023-01-26T01:33:49.864Z,78.03
2023-01-26T01:35:59.714Z,80.47
2023-01-26T01:38:03.677Z,76.38
2023-01-26T01:40:08.328Z,81.75
2023-01-26T01:42:11.845Z,84.53
2023-01-26T01:44:20.385Z,88.15
2023-01-26T01:46:32.189Z,86.30
2023-01-26T01:48:43.967Z,84.68
2023-01-26T01:50:47.691Z,87.13
2023-01-26T01:52:51.102Z,83.22
2023-01-26T01:54:58.038Z,85.07
2023-01-26T01:57:06.181Z,87.45
2023-01-26T01:59:11.608Z,84.35
2023-01-26T02:01:16.712Z,93.20
2023-01-26T02:03:21.386Z,85.00
2023-01-26T02:05:34.104Z,81.88
2023-01-26T02:07:39.918Z,84.03
2023-01-26T02:10:02.820Z,80.78
2023-01-26T02:14:12.967Z,81.78
2023-01-26T02:16:18.377Z,84.00
2023-01-26T02:18:21.848Z,80.60
2023-01-26T02:20:32.246Z,74.63
2023-01-26T02:22:46.824Z,76.05
2023-01-26T02:24:53.873Z,75.70
2023-01-26T02:27:00.042Z,76.03
2023-01-26T02:29:07.997Z,71.72
2023-01-26T02:31:14.318Z,74.40
2023-01-26T02:33:19.246Z,75.75
2023-01-26T02:35:22.954Z,70.97
2023-01-26T02:37:26.212Z,74.93
2023-01-26T02:39:42.409Z,73.38
2023-01-26T02:42:04.458Z,67.78
2023-01-26T02:44:12.453Z,73.05
2023-01-26T02:46:15.712Z,68.00
2023-01-26T02:48:40.088Z,65.50
2023-01-26T02:50:42.416Z,74.53
2023-01-26T02:52:45.658Z,70.68
2023-01-26T02:55:12.674Z,70.55
2023-01-26T02:57:15.991Z,71.60
2023-01-26T02:59:22.060Z,70.43
2023-01-26T03:01:25.269Z,67.68
2023-01-26T03:03:41.747Z,68.05
2023-01-26T03:05:45.674Z,64.82
2023-01-26T03:07:49.133Z,69.25
2023-01-26T03:09:52.385Z,65.50
2023-01-26T03:11:55.686Z,66.95
2023-01-26T03:13:58.919Z,65.65
2023-01-26T03:16:07.157Z,72.10
2023-01-26T03:18:28.789Z,66.85
2023-01-26T03:20:49.556Z,66.68
2023-01-26T03:23:09.274Z,69.88
2023-01-26T03:25:29.907Z,65.53
2023-01-26T03:27:40.176Z,65.18
2023-01-26T03:29:43.475Z,68.43
2023-01-26T03:31:48.559Z,67.93
2023-01-26T03:33:51.863Z,74.93
2023-01-26T03:35:56.144Z,66.72
2023-01-26T03:38:00.410Z,69.88
2023-01-26T03:40:34.339Z,68.00
2023-01-26T03:42:55.461Z,68.10
2023-01-26T03:45:16.066Z,66.90
2023-01-26T03:47:38.665Z,49.85
2023-01-26T03:49:59.293Z,69.45
2023-01-26T03:52:19.963Z,66.97
2023-01-26T03:54:42.019Z,71.13
2023-01-26T03:56:45.485Z,61.58
2023-01-26T03:58:53.187Z,67.88
2023-01-26T04:00:58.964Z,66.32
2023-01-26T04:03:20.805Z,66.72
2023-01-26T04:05:41.441Z,67.00
2023-01-26T04:08:02.287Z,61.78
2023-01-26T04:10:06.138Z,62.15
2023-01-26T04:12:10.678Z,55.78
2023-01-26T04:14:49.994Z,61.15
2023-01-26T04:17:15.212Z,63.22
2023-01-26T04:19:37.608Z,60.10
2023-01-26T04:21:40.859Z,59.80
2023-01-26T04:23:58.490Z,58.15
2023-01-26T04:26:01.716Z,56.70
2023-01-26T04:28:06.004Z,54.50
2023-01-26T04:30:11.988Z,50.70
2023-01-26T04:32:15.794Z,55.42
2023-01-26T04:34:20.573Z,57.25
2023-01-26T04:36:23.847Z,54.15
2023-01-26T04:38:28.197Z,49.78
2023-01-26T04:40:31.527Z,53.30
2023-01-26T04:42:34.784Z,55.90
2023-01-26T04:44:39.781Z,51.83
2023-01-26T04:46:43.078Z,52.75
2023-01-26T04:48:48.850Z,54.58
2023-01-26T04:50:56.217Z,57.25
2023-01-26T04:53:00.784Z,54.00
2023-01-26T04:55:04.947Z,50.63
2023-01-26T04:57:11.101Z,54.05
2023-01-26T04:59:17.386Z,51.65
2023-01-26T05:01:21.520Z,52.30
2023-01-26T05:03:26.060Z,49.63
2023-01-26T05:05:29.332Z,50.72
2023-01-26T05:07:34.155Z,49.20
2023-01-26T05:09:38.801Z,48.33
2023-01-26T05:12:18.670Z,51.45
2023-01-26T05:14:42.001Z,46.63
2023-01-26T05:17:05.624Z,46.70
2023-01-26T05:19:43.990Z,46.55
2023-01-26T05:22:13.314Z,47.78
2023-01-26T05:24:25.850Z,46.63
2023-01-26T05:26:38.002Z,48.90
2023-01-26T05:28:45.547Z,48.20
2023-01-26T05:30:48.945Z,49.17
2023-01-26T05:32:52.335Z,48.50
2023-01-26T05:34:55.610Z,48.75
2023-01-26T05:36:58.911Z,47.90
2023-01-26T05:39:02.231Z,46.30
2023-01-26T05:41:11.060Z,45.45
2023-01-26T05:43:28.502Z,47.28
2023-01-26T05:45:45.442Z,47.47
2023-01-26T05:47:50.605Z,47.28
2023-01-26T05:49:54.613Z,44.22
2023-01-26T05:52:02.293Z,47.83
2023-01-26T05:54:06.654Z,46.42
2023-01-26T05:56:11.868Z,45.38
2023-01-26T05:58:19.985Z,42.30
2023-01-26T06:00:24.891Z,47.50
2023-01-26T06:02:35.998Z,45.83
2023-01-26T06:04:39.918Z,46.45
2023-01-26T06:06:43.826Z,47.88
2023-01-26T06:09:08.481Z,45.85
2023-01-26T06:11:29.943Z,48.30
2023-01-26T06:13:45.393Z,47.75
2023-01-26T06:16:01.963Z,45.95
2023-01-26T06:18:06.786Z,46.65
2023-01-26T06:20:12.663Z,47.25
2023-01-26T06:22:16.356Z,43.65
2023-01-26T06:24:23.920Z,47.80
2023-01-26T06:26:29.617Z,46.75
2023-01-26T06:28:34.218Z,47.88
2023-01-26T06:30:38.057Z,47.33
2023-01-26T06:32:48.567Z,45.88
2023-01-26T06:34:54.710Z,45.22
2023-01-26T06:36:58.784Z,50.72
2023-01-26T06:39:07.623Z,46.72
2023-01-26T06:41:11.954Z,45.00
2023-01-26T06:43:16.747Z,46.65
2023-01-26T06:45:20.833Z,45.90
2023-01-26T06:47:25.270Z,43.45
2023-01-26T06:49:28.583Z,44.03
2023-01-26T06:51:59.065Z,44.50
2023-01-26T06:54:16.405Z,42.38
2023-01-26T06:56:37.351Z,40.63
2023-01-26T06:58:58.756Z,45.05
2023-01-26T07:01:24.354Z,44.22
2023-01-26T07:03:27.790Z,42.92
2023-01-26T07:05:31.114Z,43.10
2023-01-26T07:07:34.288Z,44.75
2023-01-26T07:09:37.576Z,43.45
2023-01-26T07:11:40.914Z,41.33
2023-01-26T07:13:44.227Z,40.42
2023-01-26T07:15:48.930Z,40.47
2023-01-26T07:17:52.041Z,45.08
2023-01-26T07:19:55.205Z,41.17
2023-01-26T07:21:58.726Z,39.45
2023-01-26T07:24:01.990Z,41.30
2023-01-26T07:26:05.636Z,42.83
2023-01-26T07:28:10.309Z,43.75
2023-01-26T07:30:14.828Z,43.25
2023-01-26T07:32:19.496Z,43.08
2023-01-26T07:34:22.759Z,38.50
2023-01-26T07:36:26.347Z,41.88
2023-01-26T07:38:30.455Z,40.13
2023-01-26T07:40:34.452Z,39.83
2023-01-26T07:42:37.756Z,42.22
2023-01-26T07:44:52.283Z,40.47
2023-01-26T07:46:55.890Z,41.75
2023-01-26T07:49:00.656Z,44.75
2023-01-26T07:51:05.563Z,39.35
2023-01-26T07:53:09.880Z,38.47
2023-01-26T07:55:13.038Z,40.25
2023-01-26T07:57:16.364Z,38.17
2023-01-26T07:59:19.909Z,36.55
2023-01-26T08:01:28.139Z,39.80
2023-01-26T08:03:32.040Z,36.15
2023-01-26T08:05:38.830Z,40.15
2023-01-26T08:07:45.863Z,38.60
2023-01-26T08:09:50.714Z,39.80
2023-01-26T08:11:54.455Z,36.58
2023-01-26T08:13:57.872Z,37.15
2023-01-26T08:16:05.734Z,37.38
2023-01-26T08:18:08.995Z,34.70
2023-01-26T08:20:14.323Z,34.53
2023-01-26T08:22:18.998Z,35.63
2023-01-26T08:24:22.234Z,33.78
2023-01-26T08:26:25.715Z,36.38
2023-01-26T08:28:29.089Z,32.63
2023-01-26T08:30:32.289Z,30.88
2023-01-26T08:32:35.756Z,32.22
2023-01-26T08:34:41.323Z,31.92
2023-01-26T08:36:45.158Z,31.35
2023-01-26T08:38:49.849Z,33.58
2023-01-26T08:40:54.546Z,31.80
2023-01-26T08:43:00.499Z,29.45
2023-01-26T08:45:03.648Z,30.85
2023-01-26T08:47:06.938Z,27.27
2023-01-26T08:49:10.648Z,27.55
2023-01-26T08:51:13.776Z,27.40
2023-01-26T08:53:17.075Z,26.95
2023-01-26T08:55:22.650Z,26.92
2023-01-26T08:57:26.292Z,25.77
2023-01-26T08:59:29.638Z,28.25
2023-01-26T09:01:33.006Z,26.00
2023-01-26T09:03:36.279Z,28.08
2023-01-26T09:05:41.793Z,25.23
2023-01-26T09:07:45.367Z,24.98
2023-01-26T09:09:48.544Z,26.95
2023-01-26T09:11:56.533Z,24.88
2023-01-26T09:14:00.116Z,24.55
2023-01-26T09:16:07.573Z,23.40
2023-01-26T09:18:18.371Z,25.30
2023-01-26T09:20:24.506Z,23.20
2023-01-26T09:22:28.073Z,21.42
2023-01-26T09:24:31.378Z,23.02
2023-01-26T09:26:34.592Z,23.25
2023-01-26T09:28:40.706Z,23.23
2023-01-26T09:30:44.026Z,19.52
2023-01-26T09:32:47.233Z,23.30
2023-01-26T09:34:50.375Z,22.83
2023-01-26T09:36:53.645Z,23.30
2023-01-26T09:38:57.767Z,20.75
2023-01-26T09:41:08.521Z,23.83
2023-01-26T09:43:22.727Z,16.23
2023-01-26T09:45:33.189Z,24.50
2023-01-26T09:47:51.373Z,24.65
2023-01-26T09:50:00.990Z,24.38
2023-01-26T09:52:10.707Z,21.35
2023-01-26T09:54:24.718Z,29.20
2023-01-26T09:56:32.567Z,23.05
2023-01-26T09:58:40.769Z,26.55
2023-01-26T10:00:48.978Z,28.73
2023-01-26T10:03:04.856Z,31.95
2023-01-26T10:05:16.102Z,29.23
2023-01-26T10:07:19.652Z,30.73
2023-01-26T10:09:27.814Z,28.58
2023-01-26T10:11:37.352Z,36.13
2023-01-26T10:13:42.341Z,36.65
2023-01-26T10:15:50.997Z,35.38
2023-01-26T10:17:56.016Z,38.90
2023-01-26T10:20:04.989Z,46.58
2023-01-26T10:22:16.486Z,35.75
2023-01-26T10:24:24.027Z,37.28
2023-01-26T10:26:32.245Z,42.50
2023-01-26T10:28:37.256Z,34.67
2023-01-26T10:30:40.914Z,41.58
2023-01-26T10:32:48.174Z,50.22
2023-01-26T10:34:53.288Z,41.30
2023-01-26T10:37:03.140Z,52.40
2023-01-26T10:39:07.518Z,48.38
2023-01-26T10:41:27.430Z,54.33
2023-01-26T10:43:32.917Z,38.20
2023-01-26T10:45:46.703Z,34.10
2023-01-26T10:48:04.009Z,64.90
2023-01-26T10:50:23.241Z,39.42
2023-01-26T10:52:26.505Z,50.47
2023-01-26T10:54:29.943Z,67.10
2023-01-26T10:56:36.337Z,42.97
2023-01-26T10:58:48.085Z,55.65
2023-01-26T11:00:57.055Z,59.35
2023-01-26T11:03:07.864Z,45.00
2023-01-26T11:05:22.293Z,53.97
2023-01-26T11:07:27.940Z,59.78
2023-01-26T11:09:32.124Z,78.72
2023-01-26T11:11:35.347Z,57.08
2023-01-26T11:13:39.102Z,61.15
2023-01-26T11:15:44.141Z,63.72
2023-01-26T11:18:01.008Z,61.45
2023-01-26T11:20:26.879Z,93.15
2023-01-26T11:22:35.047Z,103.45
2023-01-26T11:24:46.641Z,45.67
2023-01-26T11:29:18.613Z,49.05
2023-01-26T11:31:34.490Z,72.68
2023-01-26T11:33:47.156Z,54.80
2023-01-26T11:36:01.728Z,51.88
2023-01-26T11:38:19.964Z,55.10
2023-01-26T11:40:33.369Z,43.08
2023-01-26T11:42:45.878Z,77.05
2023-01-26T11:45:07.592Z,61.38
2023-01-26T11:49:45.423Z,76.22
2023-01-26T11:52:00.518Z,44.60
2023-01-26T11:54:25.087Z,62.58
2023-01-26T11:56:39.276Z,54.55
2023-01-26T11:58:45.816Z,63.17
2023-01-26T12:00:53.329Z,64.55
2023-01-26T12:03:03.066Z,46.80
2023-01-26T12:05:15.718Z,56.22
2023-01-26T12:07:24.155Z,75.72
2023-01-26T12:09:37.148Z,48.53
2023-01-26T12:11:43.913Z,59.83
2023-01-26T12:13:49.932Z,90.60
2023-01-26T12:15:58.648Z,58.97
2023-01-26T12:18:07.435Z,60.85
2023-01-26T12:20:29.850Z,154.43
2023-01-26T12:22:38.232Z,95.00
2023-01-26T12:25:16.264Z,75.78
2023-01-26T12:27:17.876Z,60.72
2023-01-26T12:29:27.266Z,67.20
2023-01-26T12:31:36.428Z,65.18
2023-01-26T12:33:40.287Z,64.90
2023-01-26T12:35:54.501Z,76.72
2023-01-26T12:38:17.266Z,85.75
2023-01-26T12:40:32.646Z,53.03
2023-01-26T12:42:45.701Z,63.78
2023-01-26T12:44:53.938Z,67.47
2023-01-26T12:47:01.029Z,59.03
2023-01-26T12:49:08.632Z,48.28
2023-01-26T12:51:19.019Z,77.20
2023-01-26T12:53:30.283Z,68.50
2023-01-26T12:55:40.618Z,72.88
2023-01-26T12:57:49.869Z,63.38
2023-01-26T12:59:53.604Z,52.42
2023-01-26T13:01:57.196Z,48.25
2023-01-26T13:04:05.584Z,50.28
2023-01-26T13:06:23.218Z,43.40
2023-01-26T13:08:53.895Z,41.95
2023-01-26T13:10:57.825Z,41.55
2023-01-26T13:13:02.724Z,53.40
2023-01-26T13:15:08.364Z,34.40
2023-01-26T13:17:55.979Z,35.20
2023-01-26T13:20:00.234Z,38.22
2023-01-26T13:22:03.538Z,34.63
2023-01-26T13:24:43.303Z,29.65
2023-01-26T13:26:47.807Z,36.20
2023-01-26T13:28:51.177Z,30.70
2023-01-26T13:31:05.201Z,25.25
2023-01-26T13:33:23.135Z,40.28
2023-01-26T13:35:28.128Z,25.27
2023-01-26T13:37:36.028Z,37.58
2023-01-26T13:39:45.376Z,26.02
2023-01-26T13:41:49.263Z,23.90
2023-01-26T13:43:55.897Z,23.48
2023-01-26T13:46:10.932Z,37.25
2023-01-26T13:48:17.023Z,26.00
2023-01-26T13:50:24.366Z,27.60
2023-01-26T13:52:29.285Z,26.95
2023-01-26T13:54:32.450Z,26.73
2023-01-26T13:56:39.025Z,32.13
2023-01-26T13:58:42.249Z,30.55
2023-01-26T14:00:59.633Z,33.67
2023-01-26T14:03:02.863Z,31.00
2023-01-26T14:05:06.606Z,32.95
2023-01-26T14:07:17.807Z,30.58
2023-01-26T14:09:21.449Z,33.25
2023-01-26T14:11:27.757Z,27.70
2023-01-26T14:13:34.927Z,34.35
2023-01-26T14:15:38.136Z,40.05
2023-01-26T14:17:50.315Z,29.40
2023-01-26T14:19:53.513Z,29.13
2023-01-26T14:21:58.237Z,28.27
2023-01-26T14:24:02.862Z,31.08
2023-01-26T14:26:12.057Z,34.55
2023-01-26T14:28:17.127Z,36.80
2023-01-26T14:30:28.021Z,35.97
2023-01-26T14:32:32.338Z,34.60
2023-01-26T14:34:35.530Z,33.47
2023-01-26T14:36:39.498Z,38.42
2023-01-26T14:38:44.657Z,32.97
2023-01-26T14:40:49.368Z,34.33
2023-01-26T14:42:55.924Z,32.13
2023-01-26T14:44:59.119Z,39.03
2023-01-26T14:47:08.279Z,34.58
2023-01-26T14:49:17.749Z,39.25
2023-01-26T14:51:23.398Z,37.13
2023-01-26T14:53:27.093Z,37.75
2023-01-26T14:55:32.714Z,36.53
2023-01-26T14:57:35.970Z,43.70
2023-01-26T14:59:41.887Z,34.13
2023-01-26T15:01:45.676Z,39.15
2023-01-26T15:03:52.367Z,42.42
2023-01-26T15:06:07.373Z,36.38
2023-01-26T15:08:21.794Z,34.10
2023-01-26T15:10:43.257Z,43.13
2023-01-26T15:14:52.120Z,35.50
2023-01-26T15:16:56.175Z,32.92
2023-01-26T15:19:02.190Z,35.15
2023-01-26T15:21:14.487Z,26.58
2023-01-26T15:23:29.729Z,35.00
2023-01-26T15:25:34.668Z,35.10
2023-01-26T15:27:38.330Z,28.25
2023-01-26T15:29:41.598Z,36.65
2023-01-26T15:31:44.960Z,37.65
2023-01-26T15:33:50.902Z,29.23
2023-01-26T15:35:59.951Z,29.58
2023-01-26T15:38:04.856Z,25.30
2023-01-26T15:40:11.843Z,30.13
2023-01-26T15:42:22.161Z,29.02
2023-01-26T15:44:25.289Z,35.50
2023-01-26T15:46:28.834Z,35.38
2023-01-26T15:48:35.069Z,24.67
2023-01-26T15:50:38.373Z,28.13
2023-01-26T15:52:42.953Z,28.52
2023-01-26T15:54:46.539Z,28.10
2023-01-26T15:56:49.733Z,27.42
2023-01-26T15:58:52.875Z,31.95
2023-01-26T16:00:56.091Z,30.15
2023-01-26T16:02:59.595Z,27.25
2023-01-26T16:05:02.770Z,26.73
2023-01-26T16:07:10.851Z,32.08
2023-01-26T16:09:15.432Z,33.25
2023-01-26T16:11:19.016Z,26.27
2023-01-26T16:13:22.155Z,29.08
2023-01-26T16:15:39.251Z,34.20
2023-01-26T16:17:42.564Z,31.52
2023-01-26T16:19:46.168Z,29.55
2023-01-26T16:21:49.397Z,29.30
2023-01-26T16:23:53.528Z,30.52
2023-01-26T16:25:58.172Z,30.25
2023-01-26T16:28:01.586Z,37.88
2023-01-26T16:30:05.260Z,29.17
2023-01-26T16:32:27.367Z,32.45
2023-01-26T16:34:30.916Z,32.55
2023-01-26T16:36:34.157Z,36.45
2023-01-26T16:38:37.430Z,33.28
2023-01-26T16:40:41.724Z,34.42
2023-01-26T16:42:50.284Z,32.78
2023-01-26T16:44:53.616Z,33.45
2023-01-26T16:46:56.762Z,25.30
2023-01-26T16:49:00.062Z,34.50
2023-01-26T16:51:15.499Z,36.25
2023-01-26T16:53:23.622Z,32.95
2023-01-26T16:55:27.105Z,30.85
2023-01-26T16:57:30.228Z,28.40
2023-01-26T16:59:34.727Z,28.42
2023-01-26T17:01:39.837Z,30.48
2023-01-26T17:03:43.098Z,26.08
2023-01-26T17:05:46.490Z,28.02
2023-01-26T17:07:50.991Z,25.00
2023-01-26T17:09:54.150Z,32.88
2023-01-26T17:11:57.302Z,27.67
2023-01-26T17:14:00.652Z,34.47
2023-01-26T17:16:05.712Z,29.38
2023-01-26T17:18:12.094Z,29.40
2023-01-26T17:20:19.182Z,30.25
2023-01-26T17:22:23.473Z,32.03
2023-01-26T17:24:26.725Z,29.35
2023-01-26T17:26:29.974Z,29.70
2023-01-26T17:28:33.201Z,32.25
2023-01-26T17:30:36.805Z,37.50
2023-01-26T17:32:43.215Z,24.38
2023-01-26T17:34:46.666Z,29.10
2023-01-26T17:36:49.841Z,24.27
2023-01-26T17:38:53.170Z,31.95
2023-01-26T17:40:56.823Z,23.20
2023-01-26T17:43:00.637Z,27.75
2023-01-26T17:45:05.045Z,27.35
2023-01-26T17:47:09.359Z,26.33
2023-01-26T17:49:13.992Z,26.08
2023-01-26T17:51:19.397Z,28.05
2023-01-26T17:53:24.409Z,23.20
2023-01-26T17:55:27.608Z,24.85
2023-01-26T17:57:30.796Z,27.98
2023-01-26T17:59:34.045Z,22.60
2023-01-26T18:01:37.299Z,29.73
2023-01-26T18:03:43.237Z,30.10
2023-01-26T18:05:54.717Z,22.08
2023-01-26T18:07:57.904Z,24.65
2023-01-26T18:10:01.141Z,26.60
2023-01-26T18:12:04.535Z,29.83
2023-01-26T18:14:07.784Z,26.30
2023-01-26T18:16:13.324Z,32.58
2023-01-26T18:18:17.134Z,23.92
2023-01-26T18:20:20.327Z,27.40
2023-01-26T18:22:25.153Z,27.02
2023-01-26T18:24:28.394Z,28.98
2023-01-26T18:26:34.439Z,28.00
2023-01-26T18:28:37.683Z,23.95
2023-01-26T18:30:41.352Z,27.30
2023-01-26T18:32:44.591Z,22.17
2023-01-26T18:34:47.919Z,29.08
2023-01-26T18:36:51.234Z,25.13
2023-01-26T18:38:57.931Z,25.05
2023-01-26T18:41:01.063Z,25.77
2023-01-26T18:43:04.828Z,27.02
2023-01-26T18:45:09.334Z,30.38
2023-01-26T18:47:12.970Z,29.25
2023-01-26T18:49:16.112Z,29.95
2023-01-26T18:51:19.265Z,33.25
2023-01-26T18:53:22.507Z,28.77
2023-01-26T18:55:27.268Z,28.67
2023-01-26T18:57:30.458Z,26.92
2023-01-26T18:59:33.700Z,25.90
2023-01-26T19:01:36.912Z,24.25
2023-01-26T19:03:42.613Z,31.65
2023-01-26T19:05:46.766Z,31.25
2023-01-26T19:07:49.885Z,26.95
2023-01-26T19:09:53.055Z,30.90
2023-01-26T19:11:58.342Z,39.83
2023-01-26T19:14:02.440Z,30.50
2023-01-26T19:16:08.785Z,31.23
2023-01-26T19:18:12.106Z,34.15
2023-01-26T19:20:15.336Z,31.25
2023-01-26T19:22:18.577Z,34.83
2023-01-26T19:24:21.864Z,25.20
2023-01-26T19:26:27.931Z,34.45
2023-01-26T19:28:32.494Z,32.05
2023-01-26T19:30:36.041Z,32.00
2023-01-26T19:32:59.327Z,28.00
2023-01-26T19:35:02.856Z,37.60
2023-01-26T19:37:06.094Z,30.33
2023-01-26T19:39:10.987Z,31.00
2023-01-26T19:41:14.360Z,30.67
2023-01-26T19:43:19.025Z,31.73
2023-01-26T19:45:23.581Z,30.10
2023-01-26T19:47:26.792Z,27.35
2023-01-26T19:49:29.988Z,23.88
2023-01-26T19:51:33.201Z,23.85
2023-01-26T19:53:37.723Z,20.83
2023-01-26T19:55:40.923Z,15.90
2023-01-26T19:57:44.174Z,14.38
2023-01-26T19:59:47.403Z,14.80
2023-01-26T20:01:51.959Z,15.43
2023-01-26T20:03:58.951Z,15.35
2023-01-26T20:06:02.958Z,15.70
2023-01-26T20:08:06.369Z,17.33
2023-01-26T20:10:10.933Z,14.05
2023-01-26T20:12:14.081Z,15.18
2023-01-26T20:14:17.310Z,18.67
2023-01-26T20:16:20.521Z,19.42
2023-01-26T20:18:25.384Z,17.17
2023-01-26T20:20:28.618Z,14.07
2023-01-26T20:22:34.143Z,17.95
2023-01-26T20:24:37.347Z,18.83
2023-01-26T20:26:42.640Z,16.80
2023-01-26T20:28:46.691Z,17.20
2023-01-26T20:30:49.933Z,17.70
2023-01-26T20:32:55.166Z,23.88
2023-01-26T20:35:00.077Z,20.83
2023-01-26T20:37:04.158Z,16.38
2023-01-26T20:39:08.805Z,22.83
2023-01-26T20:41:14.520Z,22.52
2023-01-26T20:43:17.865Z,21.40
2023-01-26T20:45:21.221Z,24.00
2023-01-26T20:47:24.418Z,19.60
2023-01-26T20:49:27.736Z,24.00
2023-01-26T20:51:35.940Z,18.98
2023-01-26T20:53:39.392Z,23.88
2023-01-26T20:55:42.877Z,17.48
2023-01-26T20:57:47.180Z,22.95
2023-01-26T20:59:50.415Z,23.23
2023-01-26T21:01:53.699Z,24.88
2023-01-26T21:03:56.985Z,23.55
2023-01-26T21:06:00.217Z,22.63
2023-01-26T21:08:05.072Z,21.80
2023-01-26T21:10:09.305Z,23.85
2023-01-26T21:12:12.562Z,22.48
2023-01-26T21:14:15.797Z,22.35
2023-01-26T21:16:23.178Z,23.00
2023-01-26T21:18:26.519Z,20.90
2023-01-26T21:20:29.871Z,17.58
2023-01-26T21:22:33.076Z,17.50
2023-01-26T21:24:38.034Z,20.80
2023-01-26T21:26:41.200Z,14.95
2023-01-26T21:28:44.695Z,18.23
2023-01-26T21:30:47.897Z,14.60
2023-01-26T21:32:52.717Z,17.02
2023-01-26T21:34:55.920Z,15.45
2023-01-26T21:36:59.060Z,15.00
2023-01-26T21:39:02.261Z,15.23
2023-01-26T21:41:29.665Z,11.10
2023-01-26T21:43:32.893Z,18.67
2023-01-26T21:45:54.272Z,17.40
2023-01-26T21:48:14.821Z,11.32
2023-01-26T21:50:38.589Z,13.73
2023-01-26T21:52:58.748Z,13.55
2023-01-26T21:55:01.927Z,22.92
2023-01-26T21:57:28.932Z,15.93
2023-01-26T21:59:31.173Z,13.85
2023-01-26T22:01:36.611Z,14.82
2023-01-26T22:03:40.121Z,10.48
2023-01-26T22:05:52.287Z,12.15
2023-01-26T22:07:55.811Z,12.80
2023-01-26T22:09:58.985Z,9.23
2023-01-26T22:12:03.322Z,11.98
2023-01-26T22:14:08.336Z,12.25
2023-01-26T22:16:11.567Z,11.40
2023-01-26T22:18:14.964Z,11.02
2023-01-26T22:20:18.735Z,11.18
2023-01-26T22:22:21.974Z,10.82
2023-01-26T22:24:25.296Z,7.88
2023-01-26T22:26:28.753Z,16.50
2023-01-26T22:28:34.874Z,9.40
2023-01-26T22:30:39.471Z,9.82
2023-01-26T22:32:43.870Z,8.57
2023-01-26T22:34:47.036Z,6.75
2023-01-26T22:36:50.461Z,8.75
2023-01-26T22:38:54.457Z,5.50
2023-01-26T22:40:57.603Z,6.80
2023-01-26T22:43:00.930Z,5.85
2023-01-26T22:45:04.485Z,7.05
2023-01-26T22:47:09.137Z,5.03
2023-01-26T22:49:12.312Z,4.70
2023-01-26T22:51:18.290Z,3.40
2023-01-26T22:53:21.512Z,3.60
2023-01-26T22:55:25.045Z,4.10
2023-01-26T22:57:28.346Z,3.65
2023-01-26T22:59:31.600Z,3.58
2023-01-26T23:01:34.744Z,3.30
2023-01-26T23:03:40.088Z,4.65
2023-01-26T23:05:43.430Z,4.43
2023-01-26T23:07:46.610Z,4.05
2023-01-26T23:09:49.932Z,2.67
2023-01-26T23:11:53.106Z,5.60
2023-01-26T23:13:57.613Z,3.63
2023-01-26T23:16:00.917Z,3.53
2023-01-26T23:18:04.211Z,3.30
2023-01-26T23:20:10.567Z,4.90
2023-01-26T23:22:13.854Z,4.45
2023-01-26T23:24:17.090Z,3.65
2023-01-26T23:26:20.529Z,3.63
2023-01-26T23:28:25.867Z,3.38
2023-01-26T23:30:29.327Z,4.40
2023-01-26T23:32:32.570Z,3.15
2023-01-26T23:34:35.729Z,2.72
2023-01-26T23:36:40.548Z,2.85
2023-01-26T23:38:44.639Z,4.22
2023-01-26T23:40:50.302Z,3.70
2023-01-26T23:43:06.921Z,3.92
2023-01-26T23:45:14.017Z,4.28
2023-01-26T23:47:17.282Z,5.25
2023-01-26T23:49:20.503Z,4.38
2023-01-26T23:51:23.700Z,4.57
2023-01-26T23:53:28.846Z,6.03
2023-01-26T23:55:31.966Z,3.47
2023-01-26T23:57:36.140Z,4.80
2023-01-26T23:59:39.330Z,3.20
